Time;durP1;ratioP1;P1;durP2;ratioP2;P2;SDS_P1;SDS_P2;PMS_P1;PMS_P2;Temp;Humidity;BMP_temperature;BMP_pressure;BME280_temperature;BME280_humidity;BME280_pressure;Samples;Min_cycle;Max_cycle;Signal;HPM_P1;HPM_P2
2021/01/26 00:00:52;;;;;;;0.00;0.00;;;;;;;2.99;100.00;98388.09;1782057;80;21118;-54
2021/01/26 00:03:20;;;;;;;0.20;0.20;;;;;;;2.99;100.00;98384.04;1783699;78;21431;-55
2021/01/26 00:05:48;;;;;;;0.10;0.10;;;;;;;3.04;100.00;98385.07;1782247;80;21564;-54
2021/01/26 00:08:16;;;;;;;2.08;0.62;;;;;;;3.06;100.00;98381.55;1770907;81;21175;-54
2021/01/26 00:10:45;;;;;;;0.90;0.30;;;;;;;3.08;100.00;98386.13;1784974;80;21078;-54
2021/01/26 00:13:13;;;;;;;0.42;0.35;;;;;;;3.12;100.00;98385.84;1771017;81;21411;-54
2021/01/26 00:15:40;;;;;;;0.08;0.03;;;;;;;3.14;100.00;98371.50;1788064;80;21153;-54
2021/01/26 00:18:09;;;;;;;0.13;0.13;;;;;;;3.15;100.00;98374.48;1787906;80;21150;-54
2021/01/26 00:20:36;;;;;;;1.22;0.80;;;;;;;3.17;100.00;98373.66;1787952;78;21520;-53
2021/01/26 00:23:04;;;;;;;0.13;0.13;;;;;;;3.17;100.00;98369.61;1746929;80;21155;-54
2021/01/26 00:25:35;;;;;;;0.20;0.20;;;;;;;3.20;100.00;98378.48;1769671;79;21130;-54
2021/01/26 00:28:05;;;;;;;0.85;0.85;;;;;;;3.22;100.00;98374.97;1768925;81;21123;-54
2021/01/26 00:30:35;;;;;;;0.00;0.00;;;;;;;3.27;100.00;98372.78;1771354;80;21611;-54
2021/01/26 00:33:07;;;;;;;0.23;0.23;;;;;;;3.32;100.00;98383.54;1768741;81;21102;-54
2021/01/26 00:35:35;;;;;;;;;;;;;;;3.42;100.00;98392.90;1771022;81;21114;-54
2021/01/26 00:38:03;;;;;;;0.00;0.00;;;;;;;3.62;100.00;98381.11;1769031;81;20247;-54
2021/01/26 00:40:30;;;;;;;0.72;0.35;;;;;;;3.94;100.00;98383.23;1769560;79;21172;-54
2021/01/26 00:42:58;;;;;;;0.00;0.00;;;;;;;4.25;100.00;98386.42;1768967;81;21166;-53
2021/01/26 00:45:26;;;;;;;0.00;0.00;;;;;;;4.51;100.00;98387.45;1767688;79;21611;-53
2021/01/26 00:47:54;;;;;;;0.10;0.10;;;;;;;4.70;100.00;98396.41;1769370;80;21398;-53
2021/01/26 00:50:22;;;;;;;0.42;0.42;;;;;;;4.84;100.00;98396.48;1770303;79;21095;-54
2021/01/26 00:52:50;;;;;;;0.33;0.33;;;;;;;4.95;100.00;98405.28;1768896;81;21456;-54
2021/01/26 00:55:22;;;;;;;0.57;0.57;;;;;;;5.00;100.00;98424.70;1768943;80;21193;-54
2021/01/26 00:57:50;;;;;;;0.03;0.03;;;;;;;5.00;100.00;98425.51;1769053;81;21157;-53
2021/01/26 01:00:23;;;;;;;0.03;0.03;;;;;;;4.97;100.00;98434.22;1770643;79;21518;-54
2021/01/26 01:02:51;;;;;;;0.00;0.00;;;;;;;4.91;100.00;98446.99;1770014;80;21162;-53
2021/01/26 01:05:18;;;;;;;0.00;0.00;;;;;;;4.86;100.00;98458.44;1777165;80;21134;-53
2021/01/26 01:07:46;;;;;;;0.05;0.05;;;;;;;4.76;100.00;98468.84;1768281;79;21162;-53
2021/01/26 01:10:19;;;;;;;0.55;0.28;;;;;;;4.66;100.00;98468.41;1770748;80;21111;-53
2021/01/26 01:12:46;;;;;;;0.30;0.30;;;;;;;4.56;100.00;98481.27;1769292;79;21480;-53
2021/01/26 01:15:15;;;;;;;0.00;0.00;;;;;;;4.40;100.00;98496.83;1779411;80;21112;-53
2021/01/26 01:17:42;;;;;;;0.00;0.00;;;;;;;4.25;100.00;98502.67;1772856;80;21154;-53
2021/01/26 01:20:11;;;;;;;0.13;0.13;;;;;;;4.08;100.00;98518.52;1778122;80;21430;-52
2021/01/26 01:22:38;;;;;;;0.00;0.00;;;;;;;3.93;100.00;98528.91;1769170;79;21175;-53
2021/01/26 01:25:06;;;;;;;0.35;0.35;;;;;;;3.77;100.00;98545.77;1768312;79;21143;-53
2021/01/26 01:27:34;;;;;;;0.03;0.03;;;;;;;3.64;100.00;98549.10;1768577;81;21126;-52
2021/01/26 01:30:04;;;;;;;0.10;0.10;;;;;;;3.51;100.00;98563.21;1769865;79;21166;-52
2021/01/26 01:32:32;;;;;;;0.00;0.00;;;;;;;3.39;100.00;98568.97;1768709;80;21185;-52
2021/01/26 01:34:59;;;;;;;0.00;0.00;;;;;;;3.31;100.00;98588.42;1785015;78;21118;-52
2021/01/26 01:37:27;;;;;;;0.15;0.15;;;;;;;3.20;100.00;98591.17;1786024;80;21830;-52
2021/01/26 01:39:54;;;;;;;0.10;0.10;;;;;;;3.12;100.00;98602.55;1782680;80;21433;-52
2021/01/26 01:42:22;;;;;;;0.10;0.10;;;;;;;3.06;100.00;98607.69;1785962;80;21134;-51
2021/01/26 01:44:49;;;;;;;0.10;0.10;;;;;;;3.00;99.18;98611.49;1786659;78;21126;-52
2021/01/26 01:47:30;;;;;;;0.35;0.35;;;;;;;2.94;98.65;98634.99;1776468;80;21210;-52
2021/01/26 01:49:59;;;;;;;0.47;0.47;;;;;;;2.87;97.66;98640.38;1791902;78;21123;-51
2021/01/26 01:52:30;;;;;;;0.05;0.05;;;;;;;2.82;96.89;98660.11;1787354;80;21087;-51
2021/01/26 01:55:05;;;;;;;0.23;0.23;;;;;;;2.77;96.60;98664.16;1780448;80;21150;-51
2021/01/26 01:57:40;;;;;;;1.22;0.33;;;;;;;2.73;96.36;98673.86;1787606;80;21154;-51
2021/01/26 02:00:14;;;;;;;0.13;0.13;;;;;;;2.67;95.86;98673.58;1739294;79;21173;-51
2021/01/26 02:02:56;;;;;;;;;;;;;;;2.66;95.43;98701.09;1765594;81;21569;-51
2021/01/26 02:05:24;;;;;;;0.20;0.20;;;;;;;2.62;95.16;98700.55;1765499;79;20255;-51
2021/01/26 02:07:55;;;;;;;0.25;0.15;;;;;;;2.56;95.26;98715.93;1765614;81;21150;-51
2021/01/26 02:10:23;;;;;;;0.10;0.10;;;;;;;2.51;95.14;98735.61;1742789;79;21621;-51
2021/01/26 02:12:50;;;;;;;0.00;0.00;;;;;;;2.47;95.09;98737.21;1785874;80;21182;-50
2021/01/26 02:15:18;;;;;;;0.10;0.10;;;;;;;2.45;95.15;98739.91;1783840;79;21142;-50
2021/01/26 02:18:09;;;;;;;0.72;0.72;;;;;;;2.43;95.25;98750.98;1787660;80;21414;-51
2021/01/26 02:20:42;;;;;;;0.08;0.08;;;;;;;2.39;95.24;98755.27;1786424;80;21108;-50
2021/01/26 02:23:51;;;;;;;0.00;0.00;;;;;;;2.30;95.41;98775.22;1787662;80;21135;-52
2021/01/26 02:26:43;;;;;;;0.10;0.10;;;;;;;2.21;95.52;98765.22;1765710;79;21190;-52
2021/01/26 02:29:21;;;;;;;0.10;0.10;;;;;;;2.05;95.93;98771.91;1771138;79;21549;-54
2021/01/26 02:32:05;;;;;;;0.13;0.13;;;;;;;1.97;96.50;98781.83;1765668;81;21119;-53
2021/01/26 02:35:13;;;;;;;0.37;0.37;;;;;;;1.89;96.82;98770.23;1724313;79;21191;-55
2021/01/26 02:38:25;;;;;;;0.10;0.10;;;;;;;1.82;97.09;98799.28;1735573;82;21217;-55
2021/01/26 02:41:25;;;;;;;0.35;0.20;;;;;;;1.79;97.22;98794.42;1711550;80;21123;-55
2021/01/26 02:44:20;;;;;;;0.13;0.13;;;;;;;1.69;97.66;98810.00;1779594;79;21307;-54
2021/01/26 02:46:51;;;;;;;0.30;0.30;;;;;;;1.64;97.93;98822.09;1762574;80;21126;-55
2021/01/26 02:49:27;;;;;;;6.62;0.50;;;;;;;1.59;97.91;98822.86;1741141;80;21179;-56
2021/01/26 02:52:19;;;;;;;0.23;0.23;;;;;;;1.56;98.07;98845.44;1763804;80;21161;-57
2021/01/26 02:55:10;;;;;;;0.30;0.30;;;;;;;1.51;97.92;98842.20;1791904;78;21154;-57
2021/01/26 02:58:04;;;;;;;0.10;0.10;;;;;;;1.46;97.86;98844.33;1758972;80;21923;-57
2021/01/26 03:00:34;;;;;;;0.20;0.20;;;;;;;1.41;98.12;98840.77;1784094;80;21174;-58
2021/01/26 03:03:15;;;;;;;0.15;0.15;;;;;;;1.36;98.36;98851.49;1759045;80;21115;-57
2021/01/26 03:05:48;;;;;;;0.23;0.23;;;;;;;1.33;98.73;98849.33;1747096;80;21178;-57
2021/01/26 03:08:20;;;;;;;0.10;0.10;;;;;;;1.29;99.00;98839.08;1766001;81;21130;-57
2021/01/26 03:10:56;;;;;;;0.42;0.42;;;;;;;1.28;99.23;98802.46;1785598;78;21135;-57
2021/01/26 03:13:24;;;;;;;0.15;0.15;;;;;;;1.27;99.31;98800.85;1786119;80;21122;-57
2021/01/26 03:15:56;;;;;;;1.45;0.47;;;;;;;1.28;99.48;98828.56;1758376;80;21158;-56
2021/01/26 03:18:31;;;;;;;0.20;0.20;;;;;;;1.29;99.57;98842.31;1785613;80;21114;-57
2021/01/26 03:21:01;;;;;;;0.25;0.25;;;;;;;1.29;99.45;98840.43;1786659;79;21170;-57
2021/01/26 03:23:36;;;;;;;0.10;0.10;;;;;;;1.31;99.45;98854.15;1788171;80;21463;-56
2021/01/26 03:26:03;;;;;;;0.23;0.23;;;;;;;1.35;99.05;98862.80;1737511;81;21114;-56
2021/01/26 03:28:30;;;;;;;0.10;0.10;;;;;;;1.39;98.68;98867.16;1755477;81;21165;-55
2021/01/26 03:30:59;;;;;;;1.07;0.80;;;;;;;1.43;98.47;98869.58;1780509;80;21158;-55
2021/01/26 03:33:35;;;;;;;0.15;0.10;;;;;;;1.46;98.24;98873.13;1785998;80;21502;-55
2021/01/26 03:36:02;;;;;;;1.20;0.55;;;;;;;1.51;97.81;98886.63;1766101;80;21171;-54
2021/01/26 03:38:31;;;;;;;0.10;0.10;;;;;;;1.54;97.51;98902.80;1784978;80;21329;-54
2021/01/26 03:41:00;;;;;;;0.45;0.45;;;;;;;1.54;97.08;98915.72;1786677;80;21150;-54
2021/01/26 03:43:28;;;;;;;0.30;0.30;;;;;;;1.54;96.63;98910.33;1786236;79;21169;-53
2021/01/26 03:46:13;;;;;;;0.00;0.00;;;;;;;1.54;96.75;98923.80;1785661;78;21111;-53
2021/01/26 03:48:55;;;;;;;0.47;0.33;;;;;;;1.53;96.61;98939.65;1786725;80;21434;-53
2021/01/26 03:51:34;;;;;;;0.10;0.10;;;;;;;1.53;96.30;98945.58;1786536;80;21147;-52
2021/01/26 03:54:18;;;;;;;1.75;0.37;;;;;;;1.53;95.56;98950.96;1786591;80;21149;-52
2021/01/26 03:57:27;;;;;;;0.50;0.50;;;;;;;1.58;95.15;98953.69;1759360;80;21122;-52
2021/01/26 04:00:21;;;;;;;0.10;0.10;;;;;;;1.58;94.68;98963.92;1785694;78;21417;-51
2021/01/26 04:03:27;;;;;;;0.20;0.20;;;;;;;1.60;94.11;98972.56;1783926;80;21143;-51
2021/01/26 04:06:10;;;;;;;0.00;0.00;;;;;;;1.60;93.39;98976.59;1774131;80;21115;-51
2021/01/26 04:08:46;;;;;;;;;;;;;;;1.60;93.22;98987.37;1789000;80;21114;-51
2021/01/26 04:11:17;;;;;;;1.50;0.78;;;;;;;1.58;92.40;98992.19;1763379;80;20292;-51
2021/01/26 04:14:02;;;;;;;0.00;0.00;;;;;;;1.60;92.12;99008.91;1791158;78;21583;-51
2021/01/26 04:16:45;;;;;;;0.30;0.30;;;;;;;1.60;91.25;99015.64;1774292;79;21557;-51
2021/01/26 04:19:14;;;;;;;0.10;0.10;;;;;;;1.62;90.87;99020.78;1773517;80;21154;-51
2021/01/26 04:21:42;;;;;;;0.88;0.30;;;;;;;1.60;90.55;99026.41;1765032;80;21150;-51
2021/01/26 04:24:09;;;;;;;0.33;0.33;;;;;;;1.61;90.25;99034.78;1757875;80;21213;-51
2021/01/26 04:26:36;;;;;;;0.00;0.00;;;;;;;1.61;90.03;99036.13;1780818;80;21134;-51
2021/01/26 04:29:04;;;;;;;1.17;0.65;;;;;;;1.61;89.68;99053.63;1780873;79;21437;-51
2021/01/26 04:31:31;;;;;;;1.00;0.75;;;;;;;1.62;89.55;99061.17;1751471;80;21206;-51
2021/01/26 04:33:59;;;;;;;0.42;0.42;;;;;;;1.63;88.66;99069.01;1786005;79;21188;-50
2021/01/26 04:36:26;;;;;;;0.23;0.23;;;;;;;1.67;87.76;99075.48;1791940;79;21134;-51
2021/01/26 04:38:54;;;;;;;0.20;0.20;;;;;;;1.70;87.42;99075.52;1793693;80;21229;-52
2021/01/26 04:41:39;;;;;;;2.75;0.30;;;;;;;1.71;86.99;99091.43;1793390;80;21122;-50
2021/01/26 04:44:30;;;;;;;0.05;0.05;;;;;;;1.72;86.55;99094.39;1790570;80;21119;-50
2021/01/26 04:47:19;;;;;;;1.52;1.27;;;;;;;1.71;86.62;99092.78;1792944;80;21121;-51
2021/01/26 04:50:04;;;;;;;8.20;0.90;;;;;;;1.69;86.62;99105.67;1765346;80;21095;-51
2021/01/26 04:52:56;;;;;;;0.82;0.25;;;;;;;1.67;86.25;99113.19;1759241;80;21139;-51
2021/01/26 04:55:56;;;;;;;0.47;0.45;;;;;;;1.70;85.91;99110.52;1787820;79;21110;-50
2021/01/26 04:58:48;;;;;;;0.68;0.68;;;;;;;1.72;85.41;99098.43;1787611;80;21119;-51
2021/01/26 05:01:29;;;;;;;0.53;0.33;;;;;;;1.70;84.48;99109.98;1786861;80;21580;-51
2021/01/26 05:04:17;;;;;;;0.85;0.42;;;;;;;1.72;84.15;99133.98;1761198;80;21191;-50
2021/01/26 05:06:59;;;;;;;1.95;0.40;;;;;;;1.70;84.06;99136.91;1747027;80;21114;-51
2021/01/26 05:09:33;;;;;;;0.73;0.73;;;;;;;1.70;83.91;99149.03;1787016;80;21132;-50
2021/01/26 05:12:01;;;;;;;0.50;0.50;;;;;;;1.67;83.96;99150.89;1725906;82;21431;-51
2021/01/26 05:14:37;;;;;;;0.42;0.42;;;;;;;1.66;83.62;99158.70;1764537;78;21550;-51
2021/01/26 05:17:16;;;;;;;0.35;0.35;;;;;;;1.67;83.48;99171.09;1736099;80;21494;-50
2021/01/26 05:19:46;;;;;;;0.15;0.10;;;;;;;1.67;82.95;99165.70;1751695;80;21151;-50
2021/01/26 05:22:22;;;;;;;3.62;0.72;;;;;;;1.67;82.63;99171.09;1781848;80;21446;-50
2021/01/26 05:24:57;;;;;;;0.60;0.60;;;;;;;1.69;82.53;99168.97;1764045;80;21131;-50
2021/01/26 05:27:24;;;;;;;0.35;0.35;;;;;;;1.70;82.39;99169.23;1750231;80;21439;-51
2021/01/26 05:29:51;;;;;;;0.40;0.40;;;;;;;1.69;81.91;99181.08;1775781;79;21139;-51
2021/01/26 05:32:19;;;;;;;1.65;0.40;;;;;;;1.70;81.64;99181.34;1787480;80;21138;-51
2021/01/26 05:34:46;;;;;;;0.50;0.50;;;;;;;1.70;81.44;99193.47;1782154;80;21581;-51
2021/01/26 05:37:15;;;;;;;0.85;0.47;;;;;;;1.70;81.33;99189.97;1776867;80;21143;-51
2021/01/26 05:39:56;;;;;;;0.10;0.10;;;;;;;1.69;81.17;99201.82;1776855;79;21131;-51
2021/01/26 05:42:24;;;;;;;0.53;0.53;;;;;;;1.69;81.03;99203.17;1778871;80;21153;-51
2021/01/26 05:44:58;;;;;;;0.28;0.28;;;;;;;1.68;80.72;99210.44;1762211;80;21156;-51
2021/01/26 05:47:31;;;;;;;0.62;0.62;;;;;;;1.70;80.40;99215.02;1730727;81;21128;-51
2021/01/26 05:49:59;;;;;;;0.10;0.10;;;;;;;1.67;80.34;99214.18;1759616;79;21189;-51
2021/01/26 05:52:36;;;;;;;3.25;0.45;;;;;;;1.68;80.39;99221.72;1762118;80;21193;-51
2021/01/26 05:55:26;;;;;;;0.15;0.15;;;;;;;1.67;80.10;99228.99;1755227;80;21122;-51
2021/01/26 05:57:53;;;;;;;0.17;0.17;;;;;;;1.66;80.12;99242.19;1757383;81;21091;-50
2021/01/26 06:00:28;;;;;;;0.15;0.15;;;;;;;1.66;79.78;99235.45;1767069;79;21416;-51
2021/01/26 06:03:20;;;;;;;0.10;0.10;;;;;;;1.66;79.58;99241.38;1761747;80;21139;-51
2021/01/26 06:06:10;;;;;;;0.37;0.37;;;;;;;1.67;79.41;99249.19;1777742;78;21466;-50
2021/01/26 06:08:52;;;;;;;0.10;0.10;;;;;;;1.67;79.38;99242.45;1786624;78;21158;-52
2021/01/26 06:11:29;;;;;;;1.03;0.93;;;;;;;1.65;79.25;99256.70;1787477;80;21134;-51
2021/01/26 06:14:14;;;;;;;1.15;1.05;;;;;;;1.67;79.22;99259.16;1783408;80;21375;-51
2021/01/26 06:16:42;;;;;;;0.00;0.00;;;;;;;1.66;79.25;99257.00;1784356;80;21209;-51
2021/01/26 06:19:15;;;;;;;0.15;0.15;;;;;;;1.67;78.88;99276.12;1787126;80;21457;-51
2021/01/26 06:21:49;;;;;;;0.10;0.10;;;;;;;1.68;78.90;99283.66;1757860;80;21597;-51
2021/01/26 06:24:21;;;;;;;1.02;0.53;;;;;;;1.69;78.77;99288.81;1789363;80;21371;-51
2021/01/26 06:27:10;;;;;;;0.03;0.03;;;;;;;1.72;78.43;99308.50;1764768;81;21131;-51
2021/01/26 06:29:55;;;;;;;1.47;0.65;;;;;;;1.74;78.60;99302.88;1696785;80;21377;-51
2021/01/26 06:32:37;;;;;;;0.20;0.20;;;;;;;1.75;78.57;99306.38;1767014;80;21146;-51
2021/01/26 06:35:35;;;;;;;2.62;1.25;;;;;;;1.77;78.09;99319.07;1791164;80;21536;-51
2021/01/26 06:38:17;;;;;;;0.20;0.20;;;;;;;1.82;77.81;99321.83;1762434;80;21146;-51
2021/01/26 06:41:07;;;;;;;0.10;0.10;;;;;;;1.84;77.72;99335.87;1730176;81;21141;-51
2021/01/26 06:44:14;;;;;;;0.15;0.15;;;;;;;1.84;77.55;99329.14;1759864;80;21872;-51
2021/01/26 06:47:14;;;;;;;0.20;0.20;;;;;;;1.86;77.22;99335.09;1760069;81;21154;-51
2021/01/26 06:50:17;;;;;;;0.37;0.35;;;;;;;1.86;77.12;99346.67;1760088;80;21697;-51
2021/01/26 06:52:56;;;;;;;0.20;0.20;;;;;;;1.86;77.59;99364.19;1729929;82;21153;-51
2021/01/26 06:55:35;;;;;;;0.10;0.10;;;;;;;1.86;77.31;99385.73;1699874;82;21142;-51
2021/01/26 06:58:24;;;;;;;0.00;0.00;;;;;;;1.87;77.44;99383.31;1726845;82;21181;-51
2021/01/26 07:01:17;;;;;;;0.05;0.05;;;;;;;1.88;77.31;99392.20;1729902;81;21146;-51
2021/01/26 07:03:59;;;;;;;0.03;0.03;;;;;;;1.90;77.42;99383.35;1729825;81;21127;-51
2021/01/26 07:06:41;;;;;;;0.20;0.20;;;;;;;1.90;77.07;99388.73;1730090;82;21505;-51
2021/01/26 07:09:38;;;;;;;0.28;0.17;;;;;;;1.94;76.78;99404.70;1729734;81;21143;-51
2021/01/26 07:12:17;;;;;;;0.20;0.20;;;;;;;1.96;76.58;99394.50;1730019;82;21150;-51
2021/01/26 07:15:01;;;;;;;0.40;0.20;;;;;;;2.00;76.53;99403.70;1730454;81;21174;-51
2021/01/26 07:17:52;;;;;;;0.00;0.00;;;;;;;2.00;76.64;99405.05;1749206;81;21566;-51
2021/01/26 07:20:36;;;;;;;1.27;0.30;;;;;;;2.00;76.48;99414.47;1752124;79;21592;-51
2021/01/26 07:23:15;;;;;;;0.10;0.10;;;;;;;2.02;76.51;99420.97;1762003;81;21115;-51
2021/01/26 07:26:01;;;;;;;0.00;0.00;;;;;;;2.04;76.56;99420.20;1763967;81;21515;-50
2021/01/26 07:28:59;;;;;;;0.10;0.10;;;;;;;2.05;76.65;99417.27;1765225;81;21981;-51
2021/01/26 07:31:35;;;;;;;0.17;0.17;;;;;;;2.07;76.88;99432.62;1764970;81;21148;-51
2021/01/26 07:34:29;;;;;;;0.00;0.00;;;;;;;2.08;76.72;99424.84;1764449;79;21154;-51
2021/01/26 07:37:06;;;;;;;0.10;0.10;;;;;;;2.10;76.68;99433.50;1796454;79;21548;-51
2021/01/26 07:39:43;;;;;;;0.10;0.10;;;;;;;2.13;76.40;99440.28;1795450;79;21146;-51
2021/01/26 07:42:15;;;;;;;0.20;0.20;;;;;;;2.14;76.53;99430.58;1771220;81;21613;-51
2021/01/26 07:44:50;;;;;;;0.60;0.60;;;;;;;2.13;76.49;99441.09;1744931;81;20960;-51
2021/01/26 07:47:37;;;;;;;0.10;0.10;;;;;;;2.15;76.50;99445.70;1793491;79;21103;-50
2021/01/26 07:50:37;;;;;;;1.52;0.68;;;;;;;2.14;76.45;99456.18;1745764;79;21105;-50
2021/01/26 07:53:16;;;;;;;0.08;0.08;;;;;;;2.14;76.36;99460.77;1797162;79;21131;-50
2021/01/26 07:56:01;;;;;;;0.03;0.03;;;;;;;2.11;76.52;99464.77;1795553;79;21180;-50
2021/01/26 07:58:29;;;;;;;0.10;0.10;;;;;;;2.10;76.00;99457.76;1758634;79;21635;-50
2021/01/26 08:00:58;;;;;;;0.20;0.20;;;;;;;2.11;75.75;99479.59;1765442;81;21600;-50
2021/01/26 08:03:27;;;;;;;0.10;0.10;;;;;;;2.10;75.76;99485.22;1748487;79;21145;-50
2021/01/26 08:05:56;;;;;;;2.27;0.95;;;;;;;2.11;75.59;99481.48;1791562;78;21181;-50
2021/01/26 08:08:28;;;;;;;0.03;0.03;;;;;;;2.13;75.40;99493.64;1796919;79;21178;-50
2021/01/26 08:11:21;;;;;;;0.72;0.72;;;;;;;2.17;75.48;99472.92;1797066;78;21138;-50
2021/01/26 08:14:05;;;;;;;0.00;0.00;;;;;;;2.21;74.83;99501.02;1796898;78;21102;-51
2021/01/26 08:16:36;;;;;;;0.10;0.10;;;;;;;2.26;74.81;99514.04;1796961;79;21436;-51
2021/01/26 08:19:07;;;;;;;0.20;0.13;;;;;;;2.31;74.09;99512.77;1794820;79;21277;-51
2021/01/26 08:21:42;;;;;;;0.03;0.03;;;;;;;2.34;73.65;99515.49;1749020;80;21127;-50
2021/01/26 08:24:26;;;;;;;0.10;0.10;;;;;;;2.36;73.80;99522.81;1759843;81;21149;-50
2021/01/26 08:27:16;;;;;;;0.23;0.23;;;;;;;2.36;74.09;99526.31;1763254;81;21167;-50
2021/01/26 08:29:49;;;;;;;0.00;0.00;;;;;;;2.37;73.98;99520.37;1766134;80;21176;-50
2021/01/26 08:32:31;;;;;;;0.00;0.00;;;;;;;2.40;73.96;99526.65;1746922;81;21133;-50
2021/01/26 08:35:22;;;;;;;0.28;0.20;;;;;;;2.40;73.73;99526.65;1740764;81;21419;-50
2021/01/26 08:37:53;;;;;;;0.20;0.20;;;;;;;2.41;73.67;99518.83;1738896;81;21118;-50
2021/01/26 08:40:29;;;;;;;0.80;0.53;;;;;;;2.42;73.67;99523.14;1766291;81;21157;-50
2021/01/26 08:43:02;;;;;;;0.45;0.45;;;;;;;2.43;73.58;99523.98;1709847;82;21400;-50
2021/01/26 08:45:37;;;;;;;0.08;0.08;;;;;;;2.44;73.48;99522.91;1727307;81;21155;-50
2021/01/26 08:48:12;;;;;;;2.27;0.42;;;;;;;2.45;73.19;99533.46;1729105;81;21541;-50
2021/01/26 08:50:53;;;;;;;0.20;0.20;;;;;;;2.48;73.36;99546.98;1724400;81;21602;-50
2021/01/26 08:53:33;;;;;;;0.10;0.10;;;;;;;2.49;73.25;99535.92;1777900;80;21123;-50
2021/01/26 08:56:04;;;;;;;0.45;0.45;;;;;;;2.50;73.64;99542.16;1783440;80;21150;-50
2021/01/26 08:58:53;;;;;;;0.33;0.33;;;;;;;2.55;74.10;99551.67;1757164;80;21127;-50
2021/01/26 09:01:40;;;;;;;0.13;0.13;;;;;;;2.60;74.28;99546.34;1781330;80;21138;-50
2021/01/26 09:04:18;;;;;;;0.17;0.17;;;;;;;2.67;74.48;99551.53;1760819;80;21564;-50
2021/01/26 09:06:48;;;;;;;0.10;0.10;;;;;;;2.71;74.62;99566.17;1768102;80;21469;-50
2021/01/26 09:09:33;;;;;;;0.62;0.28;;;;;;;2.75;74.63;99576.75;1746314;81;21116;-50
2021/01/26 09:12:02;;;;;;;0.00;0.00;;;;;;;2.80;74.98;99563.33;1766300;80;21135;-50
2021/01/26 09:14:47;;;;;;;0.08;0.08;;;;;;;2.89;75.08;99575.84;1721189;82;21484;-50
2021/01/26 09:17:32;;;;;;;0.10;0.10;;;;;;;2.92;74.91;99569.43;1765679;81;21127;-50
2021/01/26 09:20:12;;;;;;;1.05;0.33;;;;;;;2.96;74.21;99575.94;1763580;80;21178;-50
2021/01/26 09:22:39;;;;;;;0.20;0.20;;;;;;;2.98;73.88;99582.45;1791467;79;21129;-50
2021/01/26 09:25:24;;;;;;;0.70;0.40;;;;;;;2.98;73.95;99578.39;1790476;80;21468;-50
2021/01/26 09:28:10;;;;;;;0.20;0.20;;;;;;;3.00;73.98;99574.37;1790517;80;21152;-50
2021/01/26 09:30:42;;;;;;;0.10;0.10;;;;;;;3.05;73.74;99576.88;1791114;80;21216;-50
2021/01/26 09:33:18;;;;;;;0.10;0.10;;;;;;;3.09;73.12;99590.13;1791199;80;21146;-50
2021/01/26 09:35:50;;;;;;;0.10;0.10;;;;;;;3.12;72.94;99596.39;1791168;80;21106;-50
2021/01/26 09:38:31;;;;;;;0.93;0.80;;;;;;;3.14;72.75;99603.69;1789107;80;21128;-50
2021/01/26 09:41:16;;;;;;;1.75;0.37;;;;;;;3.13;72.36;99616.38;1789490;80;21133;-50
2021/01/26 09:43:48;;;;;;;0.03;0.03;;;;;;;3.12;72.62;99620.16;1791444;79;21130;-50
2021/01/26 09:46:33;;;;;;;0.00;0.00;;;;;;;3.12;72.13;99626.09;1763848;81;21138;-49
2021/01/26 09:49:23;;;;;;;0.53;0.53;;;;;;;3.13;72.32;99623.66;1791453;80;21147;-50
2021/01/26 09:52:06;;;;;;;0.20;0.20;;;;;;;3.18;72.37;99621.02;1791464;80;21154;-50
2021/01/26 09:54:36;;;;;;;0.15;0.15;;;;;;;3.23;72.06;99634.59;1781667;80;21146;-50
2021/01/26 09:57:04;;;;;;;0.00;0.00;;;;;;;3.27;71.67;99624.92;1760085;81;21119;-50
2021/01/26 09:59:34;;;;;;;0.17;0.17;;;;;;;3.29;71.85;99633.59;1760105;81;21561;-50
2021/01/26 10:02:08;;;;;;;0.40;0.40;;;;;;;3.32;71.94;99618.78;1760227;81;21158;-50
2021/01/26 10:04:38;;;;;;;0.20;0.20;;;;;;;3.38;71.96;99620.45;1760287;81;21118;-50
2021/01/26 10:07:11;;;;;;;0.30;0.30;;;;;;;3.44;71.74;99625.67;1756362;81;21576;-50
2021/01/26 10:09:40;;;;;;;0.30;0.20;;;;;;;3.53;71.39;99612.52;1758861;80;21150;-49
2021/01/26 10:12:33;;;;;;;0.20;0.20;;;;;;;3.60;71.14;99608.28;1766995;80;21122;-50
2021/01/26 10:15:24;;;;;;;0.17;0.17;;;;;;;3.63;70.94;99622.63;1760261;81;21161;-51
2021/01/26 10:18:15;;;;;;;0.30;0.20;;;;;;;3.65;71.02;99625.89;1759883;81;21131;-50
2021/01/26 10:20:53;;;;;;;0.40;0.40;;;;;;;3.66;70.38;99617.55;1731545;82;21158;-50
2021/01/26 10:23:36;;;;;;;0.70;0.28;;;;;;;3.67;69.81;99626.46;1729715;82;21194;-50
2021/01/26 10:26:23;;;;;;;2.75;0.37;;;;;;;3.66;69.38;99630.25;1729711;82;21199;-50
2021/01/26 10:29:02;;;;;;;0.00;0.00;;;;;;;3.67;69.14;99637.27;1758589;80;21155;-50
2021/01/26 10:31:48;;;;;;;0.00;0.00;;;;;;;3.68;68.83;99636.19;1763913;81;21130;-50
2021/01/26 10:34:34;;;;;;;0.53;0.50;;;;;;;3.69;68.87;99635.14;1764026;81;21195;-50
2021/01/26 10:37:28;;;;;;;0.10;0.10;;;;;;;3.69;69.08;99624.33;1763949;81;21141;-50
2021/01/26 10:40:22;;;;;;;0.10;0.10;;;;;;;3.72;69.23;99627.05;1763475;80;21194;-49
2021/01/26 10:43:06;;;;;;;0.10;0.10;;;;;;;3.75;69.11;99631.94;1716208;83;21158;-50
2021/01/26 10:45:39;;;;;;;0.25;0.25;;;;;;;3.77;68.26;99632.52;1767280;80;21106;-50
2021/01/26 10:48:13;;;;;;;0.45;0.45;;;;;;;3.81;68.38;99643.91;1787659;80;21130;-50
2021/01/26 10:50:41;;;;;;;2.85;0.42;;;;;;;3.84;68.29;99635.29;1787469;78;21551;-50
2021/01/26 10:53:08;;;;;;;0.10;0.10;;;;;;;3.88;67.71;99647.23;1787578;80;21151;-50
2021/01/26 10:55:36;;;;;;;0.00;0.00;;;;;;;3.90;67.95;99642.09;1754626;80;21107;-50
2021/01/26 10:58:03;;;;;;;0.57;0.55;;;;;;;3.88;67.84;99643.18;1787588;80;21435;-50
2021/01/26 11:00:30;;;;;;;0.10;0.10;;;;;;;3.87;67.52;99638.83;1787441;80;21154;-50
2021/01/26 11:02:59;;;;;;;0.10;0.10;;;;;;;3.88;67.76;99643.18;1754455;81;21183;-50
2021/01/26 11:05:27;;;;;;;0.30;0.30;;;;;;;3.92;67.81;99646.72;1787363;80;21119;-49
2021/01/26 11:07:56;;;;;;;0.30;0.30;;;;;;;3.94;67.59;99645.39;1787566;80;21585;-50
2021/01/26 11:10:25;;;;;;;0.20;0.20;;;;;;;3.95;67.47;99650.25;1787385;80;21143;-50
2021/01/26 11:12:52;;;;;;;0.10;0.10;;;;;;;3.96;66.96;99650.55;1787504;80;21126;-50
2021/01/26 11:15:27;;;;;;;0.00;0.00;;;;;;;3.98;67.10;99652.44;1787340;80;21608;-49
2021/01/26 11:17:52;;;;;;;0.88;0.88;;;;;;;3.98;66.81;99646.52;1787260;80;21154;-50
2021/01/26 11:20:21;;;;;;;0.10;0.10;;;;;;;3.98;67.02;99648.38;1783288;80;21450;-50
2021/01/26 11:22:49;;;;;;;0.60;0.28;;;;;;;3.99;67.26;99659.49;1787908;78;21098;-50
2021/01/26 11:25:17;;;;;;;0.10;0.10;;;;;;;4.03;66.70;99653.84;1793406;80;21165;-50
2021/01/26 11:27:45;;;;;;;0.10;0.10;;;;;;;4.02;66.74;99672.50;1760290;80;21173;-50
2021/01/26 11:30:15;;;;;;;0.03;0.03;;;;;;;3.98;65.95;99657.33;1787183;80;21233;-50
2021/01/26 11:32:42;;;;;;;2.02;0.30;;;;;;;3.95;66.12;99662.42;1789402;80;21133;-50
2021/01/26 11:35:12;;;;;;;0.33;0.33;;;;;;;3.88;66.02;99658.55;1778380;78;21293;-50
2021/01/26 11:37:40;;;;;;;0.10;0.10;;;;;;;3.81;66.19;99656.61;1786989;80;21200;-50
2021/01/26 11:40:09;;;;;;;0.10;0.10;;;;;;;3.76;66.05;99658.72;1793164;80;21012;-50
2021/01/26 11:42:37;;;;;;;4.20;0.45;;;;;;;3.71;66.48;99665.42;1793000;80;21204;-50
2021/01/26 11:45:07;;;;;;;0.45;0.45;;;;;;;3.69;66.68;99666.75;1760249;81;21103;-49
2021/01/26 11:47:35;;;;;;;1.37;0.55;;;;;;;3.66;66.83;99668.08;1790968;80;21155;-50
2021/01/26 11:50:06;;;;;;;0.00;0.00;;;;;;;3.62;66.61;99665.05;1789783;78;21171;-50
2021/01/26 11:52:34;;;;;;;1.85;0.47;;;;;;;3.60;67.01;99680.69;1789666;80;21182;-49
2021/01/26 11:55:04;;;;;;;0.30;0.30;;;;;;;3.57;67.17;99672.28;1790385;80;21509;-49
2021/01/26 11:57:32;;;;;;;0.20;0.20;;;;;;;3.52;67.04;99683.84;1793714;80;21538;-49
2021/01/26 12:00:01;;;;;;;0.10;0.10;;;;;;;3.51;67.40;99686.27;1793510;78;21172;-49
2021/01/26 12:02:28;;;;;;;0.90;0.90;;;;;;;3.50;67.91;99681.91;1758244;81;21519;-49
2021/01/26 12:04:56;;;;;;;0.00;0.00;;;;;;;3.51;68.20;99689.48;1792041;78;21573;-49
2021/01/26 12:07:23;;;;;;;0.47;0.28;;;;;;;3.52;68.01;99687.08;1792061;79;21575;-50
2021/01/26 12:09:51;;;;;;;1.75;0.28;;;;;;;3.51;67.73;99684.08;1764351;80;21431;-50
2021/01/26 12:12:18;;;;;;;0.47;0.47;;;;;;;3.47;67.73;99701.88;1740977;82;21502;-49
2021/01/26 12:14:46;;;;;;;0.20;0.20;;;;;;;3.44;67.67;99715.34;1761858;80;21122;-49
2021/01/26 12:17:14;;;;;;;0.15;0.15;;;;;;;3.40;67.54;99721.77;1761677;81;21173;-50
2021/01/26 12:19:41;;;;;;;0.40;0.40;;;;;;;3.35;67.38;99706.84;1761151;80;21175;-49
2021/01/26 12:22:09;;;;;;;0.72;0.65;;;;;;;3.29;67.81;99718.66;1708435;82;20973;-49
2021/01/26 12:24:36;;;;;;;0.70;0.30;;;;;;;3.25;68.20;99725.61;1772202;80;21115;-49